MV Moseldijk — PBWK — position and weather

sailwx.info

Track history (hours):
 
Tides and Currents Weather Stations Pressure Air Temp Water Temp Dewpoint Dewpoint Depression Visibility Wind Speed Wind Dir Waves Ship Positions

MV Moseldijk

Last reported at 2014-Dec-22 17:08 UTC. Time now 2014-Dec-22 21:17 UTC.
Position N 35°58' W 005°15'.

Length 90 m; draft 6.3 m.

Type: Cargo ship. MMSI: 246644000.

Date/timePositionNaut miles runAvg speedWind from/ knotsBaromVisibWave heightAir tempDewpointWater temp
2014-Dec-22 17:08N 35°58' W 005°15'610.2
2014-Dec-22 16:33N 35°57' W 005°22'235 8.3
2014-Dec-21 12:24N 37°38' W 009°47'1011.1
2014-Dec-21 11:29N 37°48' W 009°50'1011.1
2014-Dec-21 10:33N 37°58' W 009°52'1111.3
2014-Dec-21 09:32N 38°10' W 009°56'1211.3
2014-Dec-21 08:26N 38°22' W 009°59'1211.2
2014-Dec-21 07:24N 38°33' W 010°03'1011.1
2014-Dec-21 06:32N 38°42' W 010°05'  
2014-Dec-16 19:12N 50°40' E 000°47'710.3
2014-Dec-16 18:33N 50°44' E 000°55'3110.5
2014-Dec-16 15:33N 51°04' E 001°33'1211.9
2014-Dec-16 14:33N 51°13' E 001°46'1111.1
2014-Dec-16 13:33N 51°22' E 001°57'9 9.1
2014-Dec-16 12:32N 51°22' E 002°11'9 9.5
2014-Dec-16 11:34N 51°22' E 002°26'10 9.8
2014-Dec-16 10:34N 51°22' E 002°42'9 8.6
2014-Dec-16 09:33N 51°23' E 002°56'12 9.3
2014-Dec-16 08:18N 51°25' E 003°14'7 9.2
2014-Dec-16 07:33N 51°25' E 003°25'8 8.0
2014-Dec-16 06:33N 51°26' E 003°38'9 8.5
2014-Dec-16 05:33N 51°21' E 003°48'2 2.1
2014-Dec-16 04:33N 51°19' E 003°50'3 2.4
2014-Dec-16 03:30N 51°17' E 003°51'0 0.0
2014-Dec-16 02:33N 51°17' E 003°51'0 0.0
2014-Dec-16 01:17N 51°17' E 003°51'0 0.0
2014-Dec-15 23:33N 51°17' E 003°51'0 0.0
2014-Dec-15 22:33N 51°17' E 003°51'0 0.0
2014-Dec-15 21:33N 51°17' E 003°51'0 0.0
2014-Dec-15 20:33N 51°17' E 003°51'0 0.0
2014-Dec-15 19:33N 51°17' E 003°51'0 0.0
2014-Dec-15 18:33N 51°17' E 003°51'0 0.0
2014-Dec-15 17:33N 51°17' E 003°51'0 0.0
2014-Dec-15 16:33N 51°17' E 003°51'0 0.0
2014-Dec-15 15:33N 51°17' E 003°51'0 0.0
2014-Dec-15 14:33N 51°17' E 003°51'0 0.0
2014-Dec-15 13:33N 51°17' E 003°51'0 0.0
2014-Dec-15 12:33N 51°17' E 003°51'0 0.0
2014-Dec-15 11:33N 51°17' E 003°51'0 0.0
2014-Dec-15 10:33N 51°17' E 003°51'0 0.0
2014-Dec-15 09:33N 51°17' E 003°51'0 0.0
2014-Dec-15 08:33N 51°17' E 003°51'0 0.0
2014-Dec-15 07:33N 51°17' E 003°51'0 0.0
2014-Dec-15 06:33N 51°17' E 003°51'0 0.0
2014-Dec-15 05:33N 51°17' E 003°51'0 0.0
2014-Dec-15 04:33N 51°17' E 003°51'0 0.0
2014-Dec-15 03:33N 51°17' E 003°51'0 0.0
2014-Dec-15 02:15N 51°17' E 003°51'0 0.0
2014-Dec-15 01:33N 51°17' E 003°51'0 0.0
2014-Dec-15 00:33N 51°17' E 003°51'0 0.0
2014-Dec-14 23:33N 51°17' E 003°51'0 0.0
2014-Dec-14 22:33N 51°17' E 003°51'0 0.0
2014-Dec-14 21:27N 51°17' E 003°51'0 0.0
2014-Dec-14 20:33N 51°17' E 003°51'0 0.0
2014-Dec-14 19:33N 51°17' E 003°51'0 0.0
2014-Dec-14 18:33N 51°17' E 003°51'0 0.0
2014-Dec-14 17:33N 51°17' E 003°51'0 0.0
2014-Dec-14 16:27N 51°17' E 003°51'0 0.0
2014-Dec-14 15:33N 51°17' E 003°51'0 0.0
2014-Dec-14 14:33N 51°17' E 003°51'0 0.0
2014-Dec-14 13:27N 51°17' E 003°51'0 0.0
2014-Dec-14 12:33N 51°17' E 003°51'0 0.0
2014-Dec-14 11:27N 51°17' E 003°51'2 2.2
2014-Dec-14 10:33N 51°18' E 003°50'1 0.7
2014-Dec-14 09:25N 51°19' E 003°49'0 0.0
2014-Dec-14 08:28N 51°19' E 003°49'0 0.0
2014-Dec-14 07:31N 51°19' E 003°49'0 0.0
2014-Dec-14 06:31N 51°19' E 003°49'0 0.0
2014-Dec-14 05:31N 51°19' E 003°49'0 0.0
2014-Dec-14 04:31N 51°19' E 003°49'0 0.0
2014-Dec-14 03:31N 51°19' E 003°49'0 0.0
2014-Dec-14 02:31N 51°19' E 003°49'0 0.0
2014-Dec-14 01:31N 51°19' E 003°49'0 0.0
2014-Dec-14 00:31N 51°19' E 003°49'0 0.0
2014-Dec-13 23:31N 51°19' E 003°49'0 0.0
2014-Dec-13 22:28N 51°19' E 003°49'0 0.0
2014-Dec-13 21:31N 51°19' E 003°49'0 0.0
2014-Dec-13 20:31N 51°19' E 003°49'0 0.0
2014-Dec-13 19:31N 51°19' E 003°49'0 0.0
2014-Dec-13 18:31N 51°19' E 003°49'0 0.0
2014-Dec-13 17:31N 51°19' E 003°49'0 0.0
2014-Dec-13 16:31N 51°19' E 003°49'0 0.0
2014-Dec-13 15:31N 51°19' E 003°49'0 0.0
2014-Dec-13 14:31N 51°19' E 003°49'0 0.0
2014-Dec-13 13:31N 51°19' E 003°49'0 0.0
2014-Dec-13 12:28N 51°19' E 003°49'0 0.0
2014-Dec-13 11:31N 51°19' E 003°49'0 0.0
2014-Dec-13 10:28N 51°19' E 003°49'0 0.0
2014-Dec-13 09:31N 51°19' E 003°49'0 0.0
2014-Dec-13 08:31N 51°19' E 003°49'0 0.0
2014-Dec-13 07:31N 51°19' E 003°49'0 0.0
2014-Dec-13 06:31N 51°19' E 003°49'0 0.0
2014-Dec-13 05:31N 51°19' E 003°49'0 0.0
2014-Dec-13 04:31N 51°19' E 003°49'0 0.0
2014-Dec-13 03:31N 51°19' E 003°49'0 0.0
2014-Dec-13 02:31N 51°19' E 003°49'0 0.0
2014-Dec-13 01:31N 51°19' E 003°49'0 0.0
2014-Dec-13 00:31N 51°19' E 003°49'0 0.0
2014-Dec-12 23:31N 51°19' E 003°49'0 0.0
2014-Dec-12 22:31N 51°19' E 003°49'0 0.0
2014-Dec-12 21:31N 51°19' E 003°49'0 0.0
2014-Dec-12 20:31N 51°19' E 003°49'0 0.0
2014-Dec-12 19:31N 51°19' E 003°49'0 0.0
2014-Dec-12 18:31N 51°19' E 003°49'0 0.0
2014-Dec-12 17:31N 51°19' E 003°49'  
Track history (hours):
 
Tides and Currents Weather Stations Pressure Air Temp Water Temp Dewpoint Dewpoint Depression Visibility Wind Speed Wind Dir Waves Ship Positions

MV Moseldijk

Last reported at 2014-Dec-22 17:08 UTC. Time now 2014-Dec-22 21:17 UTC.
Position N 35°58' W 005°15'.

Length 90 m; draft 6.3 m.

Type: Cargo ship. MMSI: 246644000.

Date/timePositionNaut miles runAvg speedWind from/ knotsBaromVisibWave heightAir tempDewpointWater temp
2014-Dec-22 17:08N 35°58' W 005°15'610.2
2014-Dec-22 16:33N 35°57' W 005°22'235 8.3
2014-Dec-21 12:24N 37°38' W 009°47'1011.1
2014-Dec-21 11:29N 37°48' W 009°50'1011.1
2014-Dec-21 10:33N 37°58' W 009°52'1111.3
2014-Dec-21 09:32N 38°10' W 009°56'1211.3
2014-Dec-21 08:26N 38°22' W 009°59'1211.2
2014-Dec-21 07:24N 38°33' W 010°03'1011.1
2014-Dec-21 06:32N 38°42' W 010°05'  
2014-Dec-16 19:12N 50°40' E 000°47'710.3
2014-Dec-16 18:33N 50°44' E 000°55'3110.5
2014-Dec-16 15:33N 51°04' E 001°33'1211.9
2014-Dec-16 14:33N 51°13' E 001°46'1111.1
2014-Dec-16 13:33N 51°22' E 001°57'9 9.1
2014-Dec-16 12:32N 51°22' E 002°11'9 9.5
2014-Dec-16 11:34N 51°22' E 002°26'10 9.8
2014-Dec-16 10:34N 51°22' E 002°42'9 8.6
2014-Dec-16 09:33N 51°23' E 002°56'12 9.3
2014-Dec-16 08:18N 51°25' E 003°14'7 9.2
2014-Dec-16 07:33N 51°25' E 003°25'8 8.0
2014-Dec-16 06:33N 51°26' E 003°38'9 8.5
2014-Dec-16 05:33N 51°21' E 003°48'2 2.1
2014-Dec-16 04:33N 51°19' E 003°50'3 2.4
2014-Dec-16 03:30N 51°17' E 003°51'0 0.0
2014-Dec-16 02:33N 51°17' E 003°51'0 0.0
2014-Dec-16 01:17N 51°17' E 003°51'0 0.0
2014-Dec-15 23:33N 51°17' E 003°51'0 0.0
2014-Dec-15 22:33N 51°17' E 003°51'0 0.0
2014-Dec-15 21:33N 51°17' E 003°51'0 0.0
2014-Dec-15 20:33N 51°17' E 003°51'0 0.0
2014-Dec-15 19:33N 51°17' E 003°51'0 0.0
2014-Dec-15 18:33N 51°17' E 003°51'0 0.0
2014-Dec-15 17:33N 51°17' E 003°51'0 0.0
2014-Dec-15 16:33N 51°17' E 003°51'0 0.0
2014-Dec-15 15:33N 51°17' E 003°51'0 0.0
2014-Dec-15 14:33N 51°17' E 003°51'0 0.0
2014-Dec-15 13:33N 51°17' E 003°51'0 0.0
2014-Dec-15 12:33N 51°17' E 003°51'0 0.0
2014-Dec-15 11:33N 51°17' E 003°51'0 0.0
2014-Dec-15 10:33N 51°17' E 003°51'0 0.0
2014-Dec-15 09:33N 51°17' E 003°51'0 0.0
2014-Dec-15 08:33N 51°17' E 003°51'0 0.0
2014-Dec-15 07:33N 51°17' E 003°51'0 0.0
2014-Dec-15 06:33N 51°17' E 003°51'0 0.0
2014-Dec-15 05:33N 51°17' E 003°51'0 0.0
2014-Dec-15 04:33N 51°17' E 003°51'0 0.0
2014-Dec-15 03:33N 51°17' E 003°51'0 0.0
2014-Dec-15 02:15N 51°17' E 003°51'0 0.0
2014-Dec-15 01:33N 51°17' E 003°51'0 0.0
2014-Dec-15 00:33N 51°17' E 003°51'0 0.0
2014-Dec-14 23:33N 51°17' E 003°51'0 0.0
2014-Dec-14 22:33N 51°17' E 003°51'0 0.0
2014-Dec-14 21:27N 51°17' E 003°51'0 0.0
2014-Dec-14 20:33N 51°17' E 003°51'0 0.0
2014-Dec-14 19:33N 51°17' E 003°51'0 0.0
2014-Dec-14 18:33N 51°17' E 003°51'0 0.0
2014-Dec-14 17:33N 51°17' E 003°51'0 0.0
2014-Dec-14 16:27N 51°17' E 003°51'0 0.0
2014-Dec-14 15:33N 51°17' E 003°51'0 0.0
2014-Dec-14 14:33N 51°17' E 003°51'0 0.0
2014-Dec-14 13:27N 51°17' E 003°51'0 0.0
2014-Dec-14 12:33N 51°17' E 003°51'0 0.0
2014-Dec-14 11:27N 51°17' E 003°51'2 2.2
2014-Dec-14 10:33N 51°18' E 003°50'1 0.7
2014-Dec-14 09:25N 51°19' E 003°49'0 0.0
2014-Dec-14 08:28N 51°19' E 003°49'0 0.0
2014-Dec-14 07:31N 51°19' E 003°49'0 0.0
2014-Dec-14 06:31N 51°19' E 003°49'0 0.0
2014-Dec-14 05:31N 51°19' E 003°49'0 0.0
2014-Dec-14 04:31N 51°19' E 003°49'0 0.0
2014-Dec-14 03:31N 51°19' E 003°49'0 0.0
2014-Dec-14 02:31N 51°19' E 003°49'0 0.0
2014-Dec-14 01:31N 51°19' E 003°49'0 0.0
2014-Dec-14 00:31N 51°19' E 003°49'0 0.0
2014-Dec-13 23:31N 51°19' E 003°49'0 0.0
2014-Dec-13 22:28N 51°19' E 003°49'0 0.0
2014-Dec-13 21:31N 51°19' E 003°49'0 0.0
2014-Dec-13 20:31N 51°19' E 003°49'0 0.0
2014-Dec-13 19:31N 51°19' E 003°49'0 0.0
2014-Dec-13 18:31N 51°19' E 003°49'0 0.0
2014-Dec-13 17:31N 51°19' E 003°49'0 0.0
2014-Dec-13 16:31N 51°19' E 003°49'0 0.0
2014-Dec-13 15:31N 51°19' E 003°49'0 0.0
2014-Dec-13 14:31N 51°19' E 003°49'0 0.0
2014-Dec-13 13:31N 51°19' E 003°49'0 0.0
2014-Dec-13 12:28N 51°19' E 003°49'0 0.0
2014-Dec-13 11:31N 51°19' E 003°49'0 0.0
2014-Dec-13 10:28N 51°19' E 003°49'0 0.0
2014-Dec-13 09:31N 51°19' E 003°49'0 0.0
2014-Dec-13 08:31N 51°19' E 003°49'0 0.0
2014-Dec-13 07:31N 51°19' E 003°49'0 0.0
2014-Dec-13 06:31N 51°19' E 003°49'0 0.0
2014-Dec-13 05:31N 51°19' E 003°49'0 0.0
2014-Dec-13 04:31N 51°19' E 003°49'0 0.0
2014-Dec-13 03:31N 51°19' E 003°49'0 0.0
2014-Dec-13 02:31N 51°19' E 003°49'0 0.0
2014-Dec-13 01:31N 51°19' E 003°49'0 0.0
2014-Dec-13 00:31N 51°19' E 003°49'0 0.0
2014-Dec-12 23:31N 51°19' E 003°49'0 0.0
2014-Dec-12 22:31N 51°19' E 003°49'0 0.0
2014-Dec-12 21:31N 51°19' E 003°49'0 0.0
2014-Dec-12 20:31N 51°19' E 003°49'0 0.0
2014-Dec-12 19:31N 51°19' E 003°49'0 0.0
2014-Dec-12 18:31N 51°19' E 003°49'0 0.0
2014-Dec-12 17:31N 51°19' E 003°49'  

Dump ship's entire track history